Time;durP1;ratioP1;P1;durP2;ratioP2;P2;SDS_P1;SDS_P2;PMS_P1;PMS_P2;Temp;Humidity;BMP_temperature;BMP_pressure;BME280_temperature;BME280_humidity;BME280_pressure;Samples;Min_cycle;Max_cycle;Signal;HPM_P1;HPM_P2
2021/03/15 00:00:21;;;;;;;8.20;6.00;;;4.90;99.90;;;-141.85;100.00;63675.41;5052272;28;20323;-63
2021/03/15 00:02:51;;;;;;;8.47;5.57;;;4.90;99.90;;;-141.85;100.00;63675.41;5052944;28;20257;-63
2021/03/15 00:05:20;;;;;;;7.63;5.90;;;4.80;99.90;;;-141.85;100.00;63675.41;5053182;28;20204;-63
2021/03/15 00:07:49;;;;;;;9.17;5.23;;;4.90;99.90;;;-141.85;100.00;63675.41;5052632;28;20272;-63
2021/03/15 00:10:16;;;;;;;7.70;5.93;;;4.90;99.90;;;-141.85;100.00;63675.41;5052953;28;20359;-63
2021/03/15 00:12:44;;;;;;;7.83;5.87;;;4.90;99.90;;;-141.85;100.00;63675.41;5052408;28;20772;-63
2021/03/15 00:15:15;;;;;;;9.60;6.17;;;4.80;99.90;;;-141.85;100.00;63675.41;5052254;28;20233;-63
2021/03/15 00:17:42;;;;;;;7.80;5.87;;;4.80;99.90;;;-141.85;100.00;63675.41;5052836;28;20211;-64
2021/03/15 00:20:14;;;;;;;8.70;6.50;;;4.70;99.90;;;-141.85;100.00;63675.41;5049794;28;20330;-63
2021/03/15 00:22:42;;;;;;;5.23;4.70;;;4.70;99.90;;;-141.85;100.00;63675.41;5032879;28;20250;-62
2021/03/15 00:25:10;;;;;;;7.77;5.83;;;4.80;99.90;;;-141.85;100.00;63675.41;5032789;28;20299;-63
2021/03/15 00:27:39;;;;;;;7.07;5.40;;;4.90;99.90;;;-141.85;100.00;63675.41;5032673;28;20205;-64
2021/03/15 00:30:10;;;;;;;9.07;5.43;;;4.90;99.90;;;-141.85;100.00;63675.41;5032116;28;20671;-62
2021/03/15 00:32:38;;;;;;;7.53;5.30;;;4.90;99.90;;;-141.85;100.00;63675.41;5032775;28;20198;-63
2021/03/15 00:35:08;;;;;;;8.27;5.23;;;4.90;99.90;;;-141.85;100.00;63675.41;5032551;28;20315;-63
2021/03/15 00:37:36;;;;;;;7.57;5.17;;;5.00;99.90;;;-141.85;100.00;63675.41;5032786;28;20229;-63
2021/03/15 00:40:06;;;;;;;7.27;4.40;;;5.00;99.90;;;-141.85;100.00;63675.41;5032371;28;20661;-63
2021/03/15 00:42:34;;;;;;;5.77;4.30;;;5.00;99.90;;;-141.85;100.00;63675.41;5032649;28;20191;-63
2021/03/15 00:45:01;;;;;;;10.67;5.10;;;4.90;99.90;;;-141.85;100.00;63675.41;5031944;28;20676;-63
2021/03/15 00:47:29;;;;;;;6.67;4.43;;;4.90;99.90;;;-141.85;100.00;63675.41;5032287;28;20255;-62
2021/03/15 00:49:56;;;;;;;8.70;4.63;;;4.80;99.90;;;-141.85;100.00;63675.41;5032638;28;20281;-63
2021/03/15 00:52:24;;;;;;;6.37;4.47;;;4.70;99.90;;;-141.85;100.00;63675.41;5032678;28;20208;-63
2021/03/15 00:54:51;;;;;;;6.10;4.40;;;4.60;99.90;;;-141.85;100.00;63675.41;5032541;28;20305;-63
2021/03/15 00:57:18;;;;;;;8.03;4.30;;;4.60;99.90;;;-141.85;100.00;63675.41;5032310;28;20201;-59
2021/03/15 00:59:45;;;;;;;6.40;5.00;;;4.50;99.90;;;-141.85;100.00;63675.41;5031616;28;20789;-59
2021/03/15 01:02:13;;;;;;;6.70;4.70;;;4.50;99.90;;;-141.85;100.00;63675.41;5032657;28;20254;-60
2021/03/15 01:04:41;;;;;;;6.60;5.17;;;4.50;99.90;;;-141.85;100.00;63675.41;5036513;28;20206;-59
2021/03/15 01:07:10;;;;;;;8.00;5.70;;;4.40;99.90;;;-141.85;100.00;63675.41;5036861;28;20332;-59
2021/03/15 01:09:38;;;;;;;8.80;6.43;;;4.50;99.90;;;-141.85;100.00;63675.41;5038907;28;20206;-59
2021/03/15 01:12:07;;;;;;;8.60;6.00;;;4.50;99.90;;;-141.85;100.00;63675.41;5038997;28;20240;-59
2021/03/15 01:14:34;;;;;;;8.07;5.10;;;4.60;99.90;;;-141.85;100.00;63675.41;5035728;28;20593;-59
2021/03/15 01:17:01;;;;;;;8.47;6.00;;;4.70;99.90;;;-141.85;100.00;63675.41;5036010;28;20203;-59
2021/03/15 01:19:30;;;;;;;7.60;5.30;;;4.80;99.90;;;-141.85;100.00;63675.41;5035659;28;20270;-58
2021/03/15 01:21:58;;;;;;;7.53;5.90;;;4.80;99.90;;;-141.85;100.00;63675.41;5035898;28;20234;-59
2021/03/15 01:24:25;;;;;;;8.23;5.40;;;4.80;99.90;;;-141.85;100.00;63675.41;5035798;28;20231;-59
2021/03/15 01:26:52;;;;;;;7.83;5.97;;;4.90;99.90;;;-141.85;100.00;63675.41;5035720;28;20229;-58
2021/03/15 01:29:19;;;;;;;10.63;6.27;;;4.90;99.90;;;-141.85;100.00;63675.41;5035030;28;20253;-59
2021/03/15 01:31:46;;;;;;;8.83;5.50;;;4.70;99.90;;;-141.85;100.00;63675.41;5035406;28;20267;-58
2021/03/15 01:34:13;;;;;;;8.33;5.83;;;4.70;99.90;;;-141.85;100.00;63675.41;5035603;28;20223;-60
2021/03/15 01:36:45;;;;;;;7.57;5.70;;;4.70;99.90;;;-141.85;100.00;63675.41;5051535;28;20241;-58
2021/03/15 01:39:15;;;;;;;8.37;5.40;;;4.60;99.90;;;-141.85;100.00;63675.41;5055409;28;20232;-59
2021/03/15 01:41:42;;;;;;;8.40;5.73;;;4.50;99.90;;;-141.85;100.00;63675.41;5055411;28;20253;-59
2021/03/15 01:44:09;;;;;;;9.10;5.60;;;4.40;99.90;;;-141.85;100.00;63675.41;5054707;28;20202;-59
2021/03/15 01:46:36;;;;;;;9.80;6.23;;;4.30;99.90;;;-141.85;100.00;63675.41;5055438;28;20302;-58
2021/03/15 01:49:03;;;;;;;7.97;6.13;;;4.10;99.90;;;-141.85;100.00;63675.41;5055343;28;20202;-59
2021/03/15 01:51:30;;;;;;;9.13;6.87;;;4.00;99.90;;;-141.85;100.00;63675.41;5054985;28;20679;-59
2021/03/15 01:53:58;;;;;;;10.93;6.77;;;4.00;99.90;;;-141.85;100.00;63675.41;5054992;28;20661;-59
2021/03/15 01:56:27;;;;;;;7.90;5.73;;;4.00;99.90;;;-141.85;100.00;63675.41;5055187;28;20234;-59
2021/03/15 01:58:54;;;;;;;8.77;6.57;;;4.00;99.90;;;-141.85;100.00;63675.41;5054445;28;20253;-59
2021/03/15 02:01:21;;;;;;;9.80;7.40;;;4.00;99.90;;;-141.85;100.00;63675.41;5055136;28;20227;-60
2021/03/15 02:03:49;;;;;;;9.10;6.80;;;3.90;99.90;;;-141.85;100.00;63675.41;5055087;28;20201;-59
2021/03/15 02:06:16;;;;;;;9.07;6.33;;;4.00;99.90;;;-141.85;100.00;63675.41;5055016;28;20197;-58
2021/03/15 02:08:43;;;;;;;9.90;7.40;;;3.90;99.90;;;-141.85;100.00;63675.41;5054718;28;20735;-59
2021/03/15 02:11:22;;;;;;;8.73;6.83;;;3.90;99.90;;;-141.85;100.00;63675.41;5054728;28;20203;-59
2021/03/15 02:14:11;;;;;;;10.60;6.57;;;4.00;99.90;;;-141.85;100.00;63675.41;5053568;28;20304;-60
2021/03/15 02:16:51;;;;;;;9.47;6.57;;;3.90;99.90;;;-141.85;100.00;63675.41;5054667;28;20654;-59
2021/03/15 02:20:16;;;;;;;8.97;6.30;;;4.00;99.90;;;-141.85;100.00;63675.41;5054468;28;20300;-59
2021/03/15 02:22:54;;;;;;;10.90;6.50;;;4.00;99.90;;;-141.85;100.00;63675.41;5000823;28;20239;-58
2021/03/15 02:26:14;;;;;;;9.87;6.70;;;4.10;99.90;;;-141.85;100.00;63675.41;5015098;28;20268;-58
2021/03/15 02:29:20;;;;;;;9.43;6.50;;;4.00;99.90;;;-141.85;100.00;63675.41;5014540;28;20214;-59
2021/03/15 02:32:20;;;;;;;8.77;6.40;;;4.10;99.90;;;-141.85;100.00;63675.41;5014928;28;20239;-59
2021/03/15 02:35:01;;;;;;;10.87;7.63;;;4.00;99.90;;;-141.85;100.00;63675.41;5014703;28;20187;-60
2021/03/15 02:37:45;;;;;;;10.03;7.33;;;4.00;99.90;;;-141.85;100.00;63675.41;5014701;28;20210;-58
2021/03/15 02:40:22;;;;;;;8.50;6.37;;;4.00;99.90;;;-141.85;100.00;63675.41;5014507;28;20667;-60
2021/03/15 02:42:54;;;;;;;9.97;6.60;;;3.90;99.90;;;-141.85;100.00;63675.41;5014194;28;20593;-60
2021/03/15 02:45:24;;;;;;;9.73;7.00;;;4.10;99.90;;;-141.85;100.00;63675.41;5014576;28;20274;-60
2021/03/15 02:47:53;;;;;;;10.17;7.20;;;4.10;99.90;;;-141.85;100.00;63675.41;5014518;28;20207;-59
2021/03/15 02:50:25;;;;;;;10.40;7.20;;;4.00;99.90;;;-141.85;100.00;63675.41;5014227;28;20652;-60
2021/03/15 02:52:55;;;;;;;10.73;7.23;;;4.00;99.90;;;-141.85;100.00;63675.41;5014398;28;20263;-60
2021/03/15 02:55:28;;;;;;;11.37;6.97;;;4.00;99.90;;;-141.85;100.00;63675.41;5014111;28;20203;-59
2021/03/15 02:57:57;;;;;;;10.30;7.17;;;3.90;99.90;;;-141.85;100.00;63675.41;5013704;28;20224;-59
2021/03/15 03:00:27;;;;;;;10.50;7.33;;;4.10;99.90;;;-141.85;100.00;63675.41;5013888;28;20260;-59
2021/03/15 03:02:56;;;;;;;11.03;6.70;;;4.10;99.90;;;-141.85;100.00;63675.41;5013910;28;20199;-58
2021/03/15 03:05:25;;;;;;;8.83;6.93;;;4.00;99.90;;;-141.85;100.00;63675.41;5013963;28;20245;-59
2021/03/15 03:08:14;;;;;;;9.93;6.57;;;4.10;99.90;;;-141.85;100.00;63675.41;5014132;28;20225;-59
2021/03/15 03:10:43;;;;;;;10.00;7.00;;;4.20;99.90;;;-141.85;100.00;63675.41;5014257;28;20233;-59
2021/03/15 03:13:12;;;;;;;13.47;6.97;;;4.20;99.90;;;-141.85;100.00;63675.41;5013597;28;20293;-59
2021/03/15 03:15:39;;;;;;;10.40;7.30;;;4.20;99.90;;;-141.85;100.00;63675.41;5013833;28;20241;-59
2021/03/15 03:18:12;;;;;;;9.73;7.07;;;4.20;99.90;;;-141.85;100.00;63675.41;5013972;28;20293;-59
2021/03/15 03:20:42;;;;;;;10.60;7.50;;;4.30;99.90;;;-141.85;100.00;63675.41;5020720;28;20211;-59
2021/03/15 03:23:11;;;;;;;10.83;7.80;;;4.30;99.90;;;-141.85;100.00;63675.41;5034031;28;20293;-59
2021/03/15 03:25:40;;;;;;;10.17;6.97;;;4.30;99.90;;;-141.85;100.00;63675.41;5033005;28;20689;-58
2021/03/15 03:28:10;;;;;;;9.73;7.03;;;4.30;99.90;;;-141.85;100.00;63675.41;5032917;28;20215;-59
2021/03/15 03:30:40;;;;;;;9.80;6.60;;;4.40;99.90;;;-141.85;100.00;63675.41;5033289;28;20647;-59
2021/03/15 03:33:11;;;;;;;10.20;7.00;;;4.40;99.90;;;-141.85;100.00;63675.41;5033389;28;20275;-58
2021/03/15 03:35:39;;;;;;;13.33;8.70;;;4.50;99.90;;;-141.85;100.00;63675.41;5040667;28;20293;-59
2021/03/15 03:38:07;;;;;;;12.40;8.30;;;4.50;99.90;;;-141.85;100.00;63675.41;5053180;28;20234;-59
2021/03/15 03:40:35;;;;;;;9.83;6.67;;;4.50;99.90;;;-141.85;100.00;63675.41;5053080;28;20308;-58
2021/03/15 03:43:02;;;;;;;9.40;6.63;;;4.50;99.90;;;-141.85;100.00;63675.41;5053083;28;20634;-59
2021/03/15 03:45:30;;;;;;;10.43;6.83;;;4.50;99.90;;;-141.85;100.00;63675.41;5053311;28;20614;-59
2021/03/15 03:47:57;;;;;;;9.93;7.37;;;4.50;99.90;;;-141.85;100.00;63675.41;5053285;28;20273;-60
2021/03/15 03:50:28;;;;;;;9.63;6.57;;;4.50;99.90;;;-141.85;100.00;63675.41;5053218;28;20236;-60
2021/03/15 03:53:02;;;;;;;8.93;6.73;;;4.50;99.90;;;-141.85;100.00;63675.41;5053248;28;20577;-59
2021/03/15 03:55:35;;;;;;;10.03;6.87;;;4.50;99.90;;;-141.85;100.00;63675.41;5053097;28;20216;-59
2021/03/15 03:58:08;;;;;;;9.30;6.40;;;4.40;99.90;;;-141.85;100.00;63675.41;5052565;28;20322;-59
2021/03/15 04:00:38;;;;;;;8.40;6.57;;;4.50;99.90;;;-141.85;100.00;63675.41;5053133;28;20204;-60
2021/03/15 04:03:15;;;;;;;10.63;6.83;;;4.50;99.90;;;-141.85;100.00;63675.41;5052760;28;20657;-60
2021/03/15 04:05:49;;;;;;;9.63;7.20;;;4.40;99.90;;;-141.85;100.00;63675.41;5053179;28;20316;-59
2021/03/15 04:08:25;;;;;;;11.07;7.37;;;4.40;99.90;;;-141.85;100.00;63675.41;5053138;28;20246;-58
2021/03/15 04:10:55;;;;;;;11.17;7.27;;;4.30;99.90;;;-141.85;100.00;63675.41;5052991;28;20185;-59
2021/03/15 04:13:27;;;;;;;10.43;7.17;;;4.20;99.90;;;-141.85;100.00;63675.41;5052822;28;20217;-60
2021/03/15 04:15:54;;;;;;;11.23;6.90;;;4.20;99.90;;;-141.85;100.00;63675.41;5052924;28;20217;-59
2021/03/15 04:18:26;;;;;;;10.27;7.30;;;4.20;99.90;;;-141.85;100.00;63675.41;5052886;28;20286;-58
2021/03/15 04:21:01;;;;;;;9.63;6.93;;;4.30;99.90;;;-141.85;100.00;63675.41;5043565;28;20211;-60
2021/03/15 04:23:34;;;;;;;12.03;7.70;;;4.30;99.90;;;-141.85;100.00;63675.41;5032798;28;20275;-59
2021/03/15 04:26:03;;;;;;;11.63;7.40;;;4.40;99.90;;;-141.85;100.00;63675.41;5032815;28;20561;-60
2021/03/15 04:28:34;;;;;;;10.00;7.60;;;4.40;99.90;;;-141.85;100.00;63675.41;5032181;28;20202;-60
2021/03/15 04:31:02;;;;;;;11.60;7.33;;;4.40;99.90;;;-141.85;100.00;63675.41;5032901;28;20634;-59
2021/03/15 04:33:30;;;;;;;9.70;7.10;;;4.40;99.90;;;-141.85;100.00;63675.41;5032898;28;20303;-59
2021/03/15 04:35:58;;;;;;;11.80;7.67;;;4.30;99.90;;;-141.85;100.00;63675.41;5032586;28;20235;-58
2021/03/15 04:38:26;;;;;;;11.97;7.50;;;4.40;99.90;;;-141.85;100.00;63675.41;5035088;28;20620;-60
2021/03/15 04:40:54;;;;;;;13.93;7.77;;;4.50;99.90;;;-141.85;100.00;63675.41;5036555;28;20681;-60
2021/03/15 04:43:24;;;;;;;12.63;8.30;;;4.60;99.90;;;-141.85;100.00;63675.41;5036262;28;20253;-60
2021/03/15 04:45:52;;;;;;;12.13;8.20;;;4.50;99.90;;;-141.85;100.00;63675.41;5036394;28;20612;-59
2021/03/15 04:48:23;;;;;;;11.97;7.77;;;4.50;99.90;;;-141.85;100.00;63675.41;5036138;28;20203;-60
2021/03/15 04:50:57;;;;;;;12.43;8.53;;;4.50;99.90;;;-141.85;100.00;63675.41;5036283;28;20278;-58
2021/03/15 04:53:29;;;;;;;10.23;7.33;;;4.50;99.90;;;-141.85;100.00;63675.41;5036619;28;20215;-59
2021/03/15 04:56:00;;;;;;;10.43;7.83;;;4.60;99.90;;;-141.85;100.00;63675.41;5036641;28;20192;-59
2021/03/15 04:58:31;;;;;;;14.23;8.30;;;4.60;99.90;;;-141.85;100.00;63675.41;5036284;28;20283;-58
2021/03/15 05:01:01;;;;;;;9.87;8.13;;;4.60;99.90;;;-141.85;100.00;63675.41;5036427;28;20312;-58
2021/03/15 05:03:31;;;;;;;13.17;7.87;;;4.60;99.90;;;-141.85;100.00;63675.41;5036099;28;20538;-59
2021/03/15 05:06:00;;;;;;;10.83;7.63;;;4.60;99.90;;;-141.85;100.00;63675.41;5035398;28;20238;-60
2021/03/15 05:08:31;;;;;;;12.60;8.10;;;4.60;99.90;;;-141.85;100.00;63675.41;5034429;28;20294;-60
2021/03/15 05:11:02;;;;;;;14.67;9.27;;;4.50;99.90;;;-141.85;100.00;63675.41;5036094;28;20224;-59
2021/03/15 05:13:33;;;;;;;11.73;9.03;;;4.50;99.90;;;-141.85;100.00;63675.41;5035932;28;20219;-59
2021/03/15 05:16:04;;;;;;;13.57;9.33;;;4.50;99.90;;;-141.85;100.00;63675.41;5036127;28;20216;-59
2021/03/15 05:18:33;;;;;;;12.47;8.57;;;4.50;99.90;;;-141.85;100.00;63675.41;5036097;28;20237;-60
2021/03/15 05:21:02;;;;;;;12.13;9.03;;;4.40;99.90;;;-141.85;100.00;63675.41;5035590;28;20223;-59
2021/03/15 05:23:31;;;;;;;13.23;9.00;;;4.40;99.90;;;-141.85;100.00;63675.41;5036038;28;20210;-60
2021/03/15 05:26:00;;;;;;;14.40;9.23;;;4.30;99.90;;;-141.85;100.00;63675.41;5035806;28;20206;-60
2021/03/15 05:28:28;;;;;;;14.00;9.17;;;4.20;99.90;;;-141.85;100.00;63675.41;5035764;28;20259;-59
2021/03/15 05:31:02;;;;;;;15.47;9.03;;;4.20;99.90;;;-141.85;100.00;63675.41;5035760;28;20670;-59
2021/03/15 05:33:34;;;;;;;12.30;8.87;;;4.10;99.90;;;-141.85;100.00;63675.41;5036031;28;20207;-59
2021/03/15 05:36:06;;;;;;;12.43;8.40;;;4.10;99.90;;;-141.85;100.00;63675.41;5045727;28;20285;-59
2021/03/15 05:38:33;;;;;;;15.97;9.23;;;4.10;99.90;;;-141.85;100.00;63675.41;5055653;28;20194;-60
2021/03/15 05:41:03;;;;;;;14.93;9.07;;;4.20;99.90;;;-141.85;100.00;63675.41;5055527;28;20222;-59
2021/03/15 05:43:49;;;;;;;16.07;10.00;;;4.10;99.90;;;-141.85;100.00;63675.41;5055457;28;20198;-60
2021/03/15 05:46:55;;;;;;;16.33;11.37;;;4.00;99.90;;;-141.85;100.00;63675.41;5055483;28;20180;-59
2021/03/15 05:49:59;;;;;;;11.93;9.80;;;4.00;99.90;;;-141.85;100.00;63675.41;5054581;28;20607;-59
2021/03/15 05:53:23;;;;;;;17.20;10.27;;;4.10;99.90;;;-141.85;100.00;63675.41;5054971;28;20197;-59
2021/03/15 05:56:11;;;;;;;15.20;9.77;;;4.10;99.90;;;-141.85;100.00;63675.41;5054908;28;20230;-59
2021/03/15 05:59:27;;;;;;;16.27;9.40;;;4.10;99.90;;;-141.85;100.00;63675.41;5054882;28;20252;-59
2021/03/15 06:02:12;;;;;;;15.40;9.20;;;4.20;99.90;;;-141.85;100.00;63675.41;5054954;28;20348;-59
2021/03/15 06:05:11;;;;;;;12.70;8.13;;;4.20;99.90;;;-141.85;100.00;63675.41;5055060;28;20190;-59
2021/03/15 06:07:42;;;;;;;14.60;9.07;;;4.20;99.90;;;-141.85;100.00;63675.41;5054264;28;20278;-59
2021/03/15 06:10:15;;;;;;;14.47;9.53;;;4.20;99.90;;;-141.85;100.00;63675.41;5054732;28;20204;-59
2021/03/15 06:12:53;;;;;;;15.93;9.87;;;4.30;99.90;;;-141.85;100.00;63675.41;5054782;28;20218;-59
2021/03/15 06:15:34;;;;;;;13.63;9.67;;;4.30;99.90;;;-141.85;100.00;63675.41;5054787;28;20180;-59
2021/03/15 06:18:04;;;;;;;12.93;8.93;;;4.30;99.90;;;-141.85;100.00;63675.41;5054642;28;20260;-59
2021/03/15 06:20:33;;;;;;;12.03;8.57;;;4.40;99.90;;;-141.85;100.00;63675.41;5048376;28;20216;-59
2021/03/15 06:23:02;;;;;;;12.00;8.40;;;4.40;99.90;;;-141.85;100.00;63675.41;5034353;28;20236;-59
2021/03/15 06:25:31;;;;;;;10.17;7.60;;;4.40;99.90;;;-141.85;100.00;63675.41;5034458;28;20205;-59
2021/03/15 06:27:59;;;;;;;12.90;7.80;;;4.40;99.90;;;-141.85;100.00;63675.41;5033893;28;20243;-59
2021/03/15 06:30:27;;;;;;;11.10;8.27;;;4.40;99.90;;;-141.85;100.00;63675.41;5034320;28;20208;-59
2021/03/15 06:32:57;;;;;;;16.27;8.33;;;4.40;99.90;;;-141.85;100.00;63675.41;5034108;28;20244;-60
2021/03/15 06:35:27;;;;;;;11.47;7.90;;;4.50;99.90;;;-141.85;100.00;63675.41;5030319;28;20234;-58
2021/03/15 06:37:55;;;;;;;11.00;7.53;;;4.50;99.90;;;-141.85;100.00;63675.41;5025290;28;20196;-59
2021/03/15 06:40:23;;;;;;;12.10;7.47;;;4.60;99.90;;;-141.85;100.00;63675.41;5034226;28;20227;-59
2021/03/15 06:42:52;;;;;;;11.20;8.27;;;4.70;99.90;;;-141.85;100.00;63675.41;5034151;28;20287;-59
2021/03/15 06:45:19;;;;;;;11.37;8.20;;;4.70;99.90;;;-141.85;100.00;63675.41;5034207;28;20300;-59
2021/03/15 06:47:49;;;;;;;12.57;7.47;;;4.60;99.90;;;-141.85;100.00;63675.41;5033986;28;20288;-59
2021/03/15 06:50:19;;;;;;;10.23;8.23;;;4.60;99.90;;;-141.85;100.00;63675.41;5032963;28;20695;-59
2021/03/15 06:52:59;;;;;;;10.03;7.13;;;4.60;99.90;;;-141.85;100.00;63675.41;5032597;28;20535;-58
2021/03/15 06:55:32;;;;;;;12.70;8.33;;;4.70;99.90;;;-141.85;100.00;63675.41;5033483;28;20231;-59
2021/03/15 06:57:59;;;;;;;10.10;7.40;;;4.60;99.90;;;-141.85;100.00;63675.41;5032539;28;20238;-59
2021/03/15 07:00:29;;;;;;;8.63;6.90;;;4.70;99.90;;;-141.85;100.00;63675.41;5033110;28;20235;-60
2021/03/15 07:03:02;;;;;;;12.30;7.27;;;4.60;99.90;;;-141.85;100.00;63675.41;5033695;28;20183;-59
2021/03/15 07:05:31;;;;;;;8.93;6.40;;;4.60;99.90;;;-141.85;100.00;63675.41;5033413;28;20188;-58
2021/03/15 07:08:02;;;;;;;10.37;7.13;;;4.60;99.90;;;-141.85;100.00;63675.41;5033434;28;20708;-59
2021/03/15 07:10:31;;;;;;;10.17;6.93;;;4.60;99.90;;;-141.85;100.00;63675.41;5033672;28;20208;-59
2021/03/15 07:13:10;;;;;;;8.57;6.83;;;4.60;99.90;;;-141.85;100.00;63675.41;5033208;28;20694;-59
2021/03/15 07:15:38;;;;;;;12.97;7.63;;;4.50;99.90;;;-141.85;100.00;63675.41;5033684;28;20254;-60
2021/03/15 07:18:15;;;;;;;11.43;7.60;;;4.50;99.90;;;-141.85;100.00;63675.41;5033263;28;20771;-60
2021/03/15 07:20:45;;;;;;;8.80;6.77;;;4.50;99.90;;;-141.85;100.00;63675.41;5033261;28;20251;-58
2021/03/15 07:23:13;;;;;;;10.97;7.63;;;4.50;99.90;;;-141.85;100.00;63675.41;5033233;28;20203;-59
2021/03/15 07:25:41;;;;;;;9.30;7.00;;;4.50;99.90;;;-141.85;100.00;63675.41;5032730;28;20287;-59
2021/03/15 07:28:08;;;;;;;9.47;6.90;;;4.60;99.90;;;-141.85;100.00;63675.41;5032867;28;20218;-58
2021/03/15 07:30:40;;;;;;;11.67;6.70;;;4.60;99.90;;;-141.85;100.00;63675.41;5033409;28;20225;-58
2021/03/15 07:33:20;;;;;;;10.10;6.97;;;4.60;99.90;;;-141.85;100.00;63675.41;5033511;28;20193;-59
2021/03/15 07:35:49;;;;;;;11.40;7.20;;;4.60;99.90;;;-141.85;100.00;63675.41;5032876;28;20236;-59
2021/03/15 07:38:31;;;;;;;8.60;6.70;;;4.60;99.90;;;-141.85;100.00;63675.41;5033306;28;20205;-58
2021/03/15 07:40:58;;;;;;;9.57;7.13;;;4.60;99.90;;;-141.85;100.00;63675.41;5032702;28;20231;-60
2021/03/15 07:43:27;;;;;;;10.37;6.43;;;4.60;99.90;;;-141.85;100.00;63675.41;5031001;28;20206;-61
2021/03/15 07:45:54;;;;;;;10.17;6.13;;;4.50;99.90;;;-141.85;100.00;63675.41;5029619;28;20565;-60
2021/03/15 07:48:24;;;;;;;9.30;6.77;;;4.50;99.90;;;-141.85;100.00;63675.41;5029707;28;20753;-61
2021/03/15 07:50:58;;;;;;;8.67;6.80;;;4.40;99.90;;;-141.85;100.00;63675.41;5029957;28;20295;-60
2021/03/15 07:53:41;;;;;;;9.63;6.70;;;4.40;99.90;;;-141.85;100.00;63675.41;5030030;28;20283;-61
2021/03/15 07:56:11;;;;;;;8.83;6.60;;;4.40;99.90;;;-141.85;100.00;63675.41;5030031;28;20207;-60
2021/03/15 07:58:40;;;;;;;9.53;6.57;;;4.30;99.90;;;-141.85;100.00;63675.41;5029884;28;20213;-58
2021/03/15 08:01:09;;;;;;;7.53;5.53;;;4.30;99.90;;;-141.85;100.00;63675.41;5030088;28;20258;-59
2021/03/15 08:03:38;;;;;;;8.70;6.27;;;4.30;99.90;;;-141.85;100.00;63675.41;5028939;28;20207;-60
2021/03/15 08:06:09;;;;;;;10.30;5.70;;;4.30;99.90;;;-141.85;100.00;63675.41;5029419;28;20198;-59
2021/03/15 08:08:38;;;;;;;7.97;6.07;;;4.30;99.90;;;-141.85;100.00;63675.41;5030021;28;20221;-61
2021/03/15 08:11:11;;;;;;;9.23;6.27;;;4.20;99.90;;;-141.85;100.00;63675.41;5029894;28;20214;-59
2021/03/15 08:13:41;;;;;;;8.53;6.37;;;4.10;99.90;;;-141.85;100.00;63675.41;5029335;28;20829;-59
2021/03/15 08:16:12;;;;;;;10.60;6.60;;;4.10;99.90;;;-141.85;100.00;63675.41;5029750;28;20195;-60
2021/03/15 08:18:42;;;;;;;9.17;6.30;;;4.10;99.90;;;-141.85;100.00;63675.41;5029913;28;20539;-60
2021/03/15 08:21:12;;;;;;;11.27;6.33;;;4.10;99.90;;;-141.85;100.00;63675.41;5029388;28;20263;-60
2021/03/15 08:23:44;;;;;;;8.73;6.23;;;4.20;99.90;;;-141.85;100.00;63675.41;5029534;28;20233;-60
2021/03/15 08:26:14;;;;;;;8.27;6.20;;;4.10;99.90;;;-141.85;100.00;63675.41;5029101;28;20199;-61
2021/03/15 08:28:43;;;;;;;10.03;6.73;;;4.20;99.90;;;-141.85;100.00;63675.41;5029166;28;20205;-60
2021/03/15 08:31:16;;;;;;;9.80;6.67;;;4.30;99.90;;;-141.85;100.00;63675.41;5029297;28;20229;-60
2021/03/15 08:33:45;;;;;;;8.23;6.03;;;4.30;99.90;;;-141.85;100.00;63675.41;5029229;28;20201;-59
2021/03/15 08:36:13;;;;;;;8.73;6.03;;;4.30;99.90;;;-141.85;100.00;63675.41;5040902;28;20263;-60
2021/03/15 08:38:41;;;;;;;8.33;6.03;;;4.40;99.90;;;-141.85;100.00;63675.41;5049202;28;20572;-59
2021/03/15 08:41:10;;;;;;;7.60;5.87;;;4.50;99.90;;;-141.85;100.00;63675.41;5049136;28;20618;-59
2021/03/15 08:43:47;;;;;;;8.83;5.73;;;4.50;99.90;;;-141.85;100.00;63675.41;5048464;28;20676;-64
2021/03/15 08:46:18;;;;;;;7.10;5.63;;;4.50;99.90;;;-141.85;100.00;63675.41;5048964;28;20190;-59
2021/03/15 08:49:04;;;;;;;6.23;4.90;;;4.50;99.90;;;-141.85;100.00;63675.41;5048780;28;20385;-60
2021/03/15 08:51:45;;;;;;;6.73;5.40;;;4.50;99.90;;;-141.85;100.00;63675.41;5049048;28;20214;-60
2021/03/15 08:54:19;;;;;;;5.30;4.43;;;4.50;99.90;;;-141.85;100.00;63675.41;5048907;28;20229;-62
2021/03/15 08:56:48;;;;;;;6.07;4.90;;;4.50;99.90;;;-141.85;100.00;63675.41;5048987;28;20731;-59
2021/03/15 08:59:15;;;;;;;6.00;4.73;;;4.50;99.90;;;-141.85;100.00;63675.41;5048350;28;20254;-60
2021/03/15 09:02:05;;;;;;;7.57;6.23;;;4.60;99.90;;;-141.85;100.00;63675.41;5049074;28;20638;-60
2021/03/15 09:04:43;;;;;;;8.77;6.40;;;4.70;99.90;;;-141.85;100.00;63675.41;5048782;28;20289;-60
2021/03/15 09:07:39;;;;;;;8.03;5.77;;;4.70;99.90;;;-141.85;100.00;63675.41;5048938;28;20594;-61
2021/03/15 09:10:44;;;;;;;7.47;5.00;;;4.70;99.90;;;-141.85;100.00;63675.41;5049033;28;20250;-58
2021/03/15 09:13:27;;;;;;;5.77;5.03;;;4.70;99.90;;;-141.85;100.00;63675.41;5032148;28;20196;-59
2021/03/15 09:16:08;;;;;;;6.88;5.35;;;4.70;99.90;;;-141.85;100.00;63675.41;5028652;28;21072;-59
2021/03/15 09:18:54;;;;;;;8.63;5.77;;;4.70;99.90;;;-141.85;100.00;63675.41;5028656;28;20211;-61
2021/03/15 09:21:56;;;;;;;8.40;5.77;;;4.70;99.90;;;-141.85;100.00;63675.41;5041497;28;20216;-61
2021/03/15 09:24:53;;;;;;;6.87;5.03;;;4.80;99.90;;;-141.85;100.00;63675.41;5050943;28;20190;-58
2021/03/15 09:27:30;;;;;;;7.03;5.10;;;4.70;99.90;;;-141.85;100.00;63675.41;5052333;28;20275;-59
2021/03/15 09:30:00;;;;;;;7.70;5.67;;;4.70;99.90;;;-141.85;100.00;63675.41;5047534;28;20206;-60
2021/03/15 09:32:32;;;;;;;8.00;5.10;;;4.70;99.90;;;-141.85;100.00;63675.41;5032016;28;20196;-60
2021/03/15 09:35:13;;;;;;;8.03;5.43;;;4.70;99.90;;;-141.85;100.00;63675.41;5030794;28;20196;-60
2021/03/15 09:37:42;;;;;;;6.43;4.53;;;4.70;99.90;;;-141.85;100.00;63675.41;5032019;28;20226;-60
2021/03/15 09:40:13;;;;;;;6.80;5.03;;;4.70;99.90;;;-141.85;100.00;63675.41;5031938;28;20299;-57
2021/03/15 09:42:43;;;;;;;7.07;5.73;;;4.80;99.90;;;-141.85;100.00;63675.41;5032222;28;20184;-54
2021/03/15 09:45:21;;;;;;;6.43;5.23;;;4.80;99.90;;;-141.85;100.00;63675.41;5032093;28;20238;-51
2021/03/15 09:47:48;;;;;;;8.17;5.10;;;4.80;99.90;;;-141.85;100.00;63675.41;5032371;28;20678;-51
2021/03/15 09:50:20;;;;;;;9.33;5.77;;;4.90;99.90;;;-141.85;100.00;63675.41;5031769;28;20199;-57
2021/03/15 09:52:47;;;;;;;6.67;5.10;;;5.20;99.90;;;-141.85;100.00;63675.41;5033404;28;20602;-60
2021/03/15 09:55:15;;;;;;;7.33;4.77;;;5.40;99.90;;;-141.85;100.00;63675.41;5035037;28;20200;-61
2021/03/15 09:57:43;;;;;;;5.87;4.97;;;5.60;99.90;;;-141.85;100.00;63675.41;5034169;28;20308;-60
2021/03/15 10:00:14;;;;;;;5.43;4.40;;;5.60;99.90;;;-141.85;100.00;63675.41;5031944;28;20229;-60
2021/03/15 10:02:44;;;;;;;5.00;4.50;;;5.60;99.90;;;-141.85;100.00;63675.41;5031490;28;20276;-60
2021/03/15 10:05:20;;;;;;;6.20;4.80;;;5.50;99.90;;;-141.85;100.00;63675.41;5031779;28;20257;-59
2021/03/15 10:07:48;;;;;;;5.17;4.63;;;5.40;99.90;;;-141.85;100.00;63675.41;5031631;28;20537;-59
2021/03/15 10:10:19;;;;;;;5.47;4.43;;;5.40;99.90;;;-141.85;100.00;63675.41;5031504;28;20613;-59
2021/03/15 10:12:50;;;;;;;6.83;4.57;;;5.50;99.90;;;-141.85;100.00;63675.41;5031391;28;20259;-60
2021/03/15 10:15:17;;;;;;;6.80;4.67;;;5.50;99.90;;;-141.85;100.00;63675.41;5031470;28;20284;-60
2021/03/15 10:17:45;;;;;;;4.93;4.43;;;5.60;99.90;;;-141.85;100.00;63675.41;5031167;28;20258;-59
2021/03/15 10:20:34;;;;;;;4.97;4.47;;;5.70;99.90;;;-141.85;100.00;63675.41;5031087;28;20217;-60
2021/03/15 10:23:11;;;;;;;4.70;4.20;;;5.80;99.90;;;-141.85;100.00;63675.41;5031167;28;20192;-60
2021/03/15 10:25:40;;;;;;;5.37;4.70;;;6.00;99.90;;;-141.85;100.00;63675.41;5031199;28;20225;-55